Time;durP1;ratioP1;P1;durP2;ratioP2;P2;SDS_P1;SDS_P2;PMS_P1;PMS_P2;Temp;Humidity;BMP_temperature;BMP_pressure;BME280_temperature;BME280_humidity;BME280_pressure;Samples;Min_cycle;Max_cycle;Signal;HPM_P1;HPM_P2
2022/01/26 00:06:37;;;;;;;117.90;56.22;;;;;;;2.12;81.34;103218.22;5073485;28;20444;-86
2022/01/26 00:09:06;;;;;;;119.60;55.22;;;;;;;1.91;82.15;103176.69;5055173;28;20491;-86
2022/01/26 00:11:33;;;;;;;118.57;54.90;;;;;;;1.79;81.53;103148.06;5073088;28;20528;-87
2022/01/26 00:14:01;;;;;;;120.90;55.78;;;;;;;2.08;81.61;103182.75;5055027;28;20377;-86
2022/01/26 00:16:37;;;;;;;120.57;54.75;;;;;;;2.03;81.15;103172.34;5072946;28;20028;-86
2022/01/26 00:19:05;;;;;;;124.20;56.08;;;;;;;1.84;81.53;103137.88;5054631;28;20020;-87
2022/01/26 00:21:35;;;;;;;123.82;55.35;;;;;;;2.16;81.15;103199.16;5073188;28;20107;-87
2022/01/26 00:24:11;;;;;;;123.47;56.35;;;;;;;1.86;80.59;103149.38;5039802;28;20029;-86
2022/01/26 00:27:04;;;;;;;123.18;55.30;;;;;;;2.25;80.43;103200.38;5050532;28;20068;-87
2022/01/26 00:29:47;;;;;;;121.97;55.42;;;;;;;2.12;81.16;103186.09;5051679;28;20037;-87
2022/01/26 00:40:51;;;;;;;123.28;57.00;;;;;;;1.87;81.50;103180.53;5053037;28;20102;-87
2022/01/26 00:43:23;;;;;;;121.85;56.00;;;;;;;1.88;81.71;103176.88;5051285;28;20403;-87
2022/01/26 00:45:56;;;;;;;;;;;;;;;2.07;81.35;103202.47;5051850;28;20427;-87
2022/01/26 00:48:23;;;;;;;124.10;54.65;;;;;;;1.78;82.19;103157.03;5051373;28;19912;-87
2022/01/26 00:50:53;;;;;;;125.50;55.47;;;;;;;2.05;81.45;103201.69;5052545;28;20052;-86
2022/01/26 00:53:24;;;;;;;125.55;54.45;;;;;;;1.73;81.39;103157.34;5050719;28;20056;-87
2022/01/26 00:55:50;;;;;;;121.57;55.72;;;;;;;1.64;81.66;103131.19;5051175;28;20075;-87
2022/01/26 00:58:15;;;;;;;128.38;56.58;;;;;;;1.75;82.02;103159.91;5051508;28;20060;-87
2022/01/26 01:00:41;;;;;;;135.15;57.58;;;;;;;2.03;80.96;103206.31;5050940;28;20131;-87
2022/01/26 01:03:07;;;;;;;119.65;53.60;;;;;;;1.88;81.33;103165.34;5050976;28;20029;-87
2022/01/26 01:05:38;;;;;;;125.55;55.60;;;;;;;1.84;81.05;103163.81;5050537;28;20032;-87
2022/01/26 01:08:09;;;;;;;126.43;55.92;;;;;;;1.84;81.43;103155.78;5051075;28;20436;-87
2022/01/26 01:10:35;;;;;;;119.43;53.33;;;;;;;1.64;81.19;103116.94;5034708;28;20405;-87
2022/01/26 01:13:01;;;;;;;127.20;54.92;;;;;;;1.66;80.98;103123.06;5051106;28;20037;-87
2022/01/26 01:15:29;;;;;;;124.97;56.10;;;;;;;1.71;81.34;103145.00;5034607;28;20063;-87
2022/01/26 01:18:07;;;;;;;128.73;56.72;;;;;;;1.59;81.23;103117.25;5051158;28;20090;-87
2022/01/26 01:30:59;;;;;;;131.32;57.38;;;;;;;1.83;81.35;103152.25;5034303;28;20507;-87
2022/01/26 01:33:31;;;;;;;126.00;55.38;;;;;;;1.74;81.72;103145.69;5050720;28;20095;-87
2022/01/26 01:35:59;;;;;;;126.40;55.38;;;;;;;1.85;82.13;103152.16;5051030;28;20083;-87
2022/01/26 01:38:28;;;;;;;129.13;55.83;;;;;;;1.93;81.67;103157.84;5050599;28;20416;-87
2022/01/26 01:40:54;;;;;;;127.05;55.90;;;;;;;1.97;80.85;103164.72;5050867;28;20492;-87
2022/01/26 01:43:24;;;;;;;123.97;53.85;;;;;;;1.70;81.40;103103.16;5017641;28;20033;-87
2022/01/26 01:45:52;;;;;;;123.45;54.30;;;;;;;2.03;81.74;103163.47;5051458;28;20057;-87
2022/01/26 01:48:23;;;;;;;125.07;55.28;;;;;;;1.61;81.47;103096.59;5050758;28;20057;-87
2022/01/26 01:50:51;;;;;;;132.52;57.20;;;;;;;1.82;81.65;103130.94;5050608;28;20025;-87
2022/01/26 01:53:18;;;;;;;124.07;54.20;;;;;;;1.90;82.13;103152.69;5050562;28;20059;-87
2022/01/26 01:55:48;;;;;;;128.35;55.85;;;;;;;1.78;82.00;103146.34;5051810;28;20070;-87
2022/01/26 01:58:14;;;;;;;133.52;55.92;;;;;;;1.56;82.23;103112.09;5050574;28;20021;-87
2022/01/26 02:00:40;;;;;;;128.73;57.38;;;;;;;1.56;82.38;103107.59;5050769;28;20508;-87
2022/01/26 02:03:05;;;;;;;128.10;56.17;;;;;;;1.48;82.21;103093.88;5033300;28;20131;-87
2022/01/26 02:05:31;;;;;;;125.07;55.30;;;;;;;1.53;81.86;103090.88;5050513;28;20040;-87
2022/01/26 02:07:59;;;;;;;129.88;55.38;;;;;;;1.93;81.32;103160.53;5050449;28;20074;-87
2022/01/26 02:10:28;;;;;;;128.57;56.10;;;;;;;1.92;81.74;103157.00;5050588;28;20554;-87
2022/01/26 02:12:56;;;;;;;124.72;55.42;;;;;;;1.70;82.14;103122.75;5050620;28;20033;-87
2022/01/26 02:15:28;;;;;;;128.45;56.00;;;;;;;1.69;82.67;103120.19;5050337;28;20039;-87
2022/01/26 02:53:20;;;;;;;114.30;51.35;;;;;;;1.65;81.79;103097.25;5053943;28;20124;-87
2022/01/26 02:55:55;;;;;;;121.00;51.72;;;;;;;1.41;81.95;103039.03;5054042;28;20045;-87
2022/01/26 03:01:05;;;;;;;121.85;53.10;;;;;;;1.43;82.02;103052.31;5053295;28;20116;-87
2022/01/26 03:03:37;;;;;;;126.95;53.20;;;;;;;1.32;82.16;103023.63;5038357;28;20032;-87
2022/01/26 03:06:08;;;;;;;121.72;52.20;;;;;;;1.30;82.36;103025.50;5053100;28;20021;-87
2022/01/26 03:08:45;;;;;;;125.05;52.95;;;;;;;1.71;82.73;103088.81;5053203;28;20035;-87
2022/01/26 03:11:13;;;;;;;128.10;53.00;;;;;;;1.34;82.55;103033.22;5053068;28;20474;-86
2022/01/26 03:13:45;;;;;;;121.53;52.28;;;;;;;1.24;82.17;103016.09;5036665;28;20044;-87
2022/01/26 03:16:16;;;;;;;;;;;;;;;1.69;82.56;103083.56;5053370;28;20040;-86
2022/01/26 03:18:59;;;;;;;122.30;51.17;;;;;;;1.58;82.53;103060.19;5052831;28;19919;-86
2022/01/26 03:30:04;;;;;;;122.78;52.95;;;;;;;1.40;82.20;103011.44;5053164;28;20036;-87
2022/01/26 03:35:15;;;;;;;120.35;52.33;;;;;;;1.65;82.19;103065.97;5054186;28;20123;-87
2022/01/26 03:37:54;;;;;;;122.80;52.72;;;;;;;1.77;81.99;103075.00;5052985;28;20035;-87
2022/01/26 03:40:31;;;;;;;118.85;51.55;;;;;;;1.73;81.95;103071.69;5052240;28;20044;-86
2022/01/26 03:43:01;;;;;;;123.78;52.83;;;;;;;1.85;81.65;103093.25;5052436;28;20028;-87
2022/01/26 03:45:27;;;;;;;126.15;53.25;;;;;;;1.85;82.03;103095.94;5052352;28;20037;-87
2022/01/26 03:47:58;;;;;;;119.65;51.83;;;;;;;1.80;82.30;103082.88;5053159;28;20020;-87
2022/01/26 03:50:25;;;;;;;120.97;52.43;;;;;;;1.75;81.72;103069.75;5052658;28;20489;-86
2022/01/26 03:52:53;;;;;;;122.60;52.75;;;;;;;1.62;81.80;103036.75;5052367;28;20064;-87
2022/01/26 03:55:21;;;;;;;128.90;54.10;;;;;;;1.70;82.00;103058.53;5052133;28;20025;-87
2022/01/26 03:57:47;;;;;;;125.47;54.15;;;;;;;1.63;82.50;103065.25;5052258;28;20036;-86
2022/01/26 04:00:13;;;;;;;121.72;52.67;;;;;;;1.67;82.57;103069.44;5035806;28;20033;-87
2022/01/26 04:02:39;;;;;;;123.47;52.13;;;;;;;1.42;83.02;103039.91;5035354;28;20079;-87
2022/01/26 04:05:09;;;;;;;124.63;52.78;;;;;;;1.61;82.90;103072.53;5051808;28;20049;-87
2022/01/26 04:07:34;;;;;;;121.88;53.50;;;;;;;1.57;82.58;103061.16;5052141;28;20123;-87
2022/01/26 04:10:12;;;;;;;125.28;53.25;;;;;;;1.51;82.99;103061.56;5052115;28;20427;-86
2022/01/26 04:12:39;;;;;;;119.82;53.03;;;;;;;1.56;82.64;103071.94;5052171;28;20115;-87
2022/01/26 04:15:13;;;;;;;127.10;53.22;;;;;;;1.30;83.07;103030.84;5053047;28;20504;-87
2022/01/26 04:17:42;;;;;;;119.70;51.38;;;;;;;1.67;83.27;103090.84;5053316;28;20378;-87
2022/01/26 04:20:11;;;;;;;124.60;52.78;;;;;;;1.52;83.44;103063.28;5035325;28;20044;-87
2022/01/26 04:22:49;;;;;;;127.38;53.08;;;;;;;1.43;82.95;103039.78;5051445;28;20029;-87
2022/01/26 04:25:21;;;;;;;126.68;53.40;;;;;;;1.44;83.51;103054.03;5051772;28;20060;-86
2022/01/26 04:27:50;;;;;;;117.55;50.70;;;;;;;1.35;83.54;103026.94;5036136;28;20033;-87
2022/01/26 04:30:15;;;;;;;123.65;52.00;;;;;;;1.49;83.26;103057.25;5035236;28;20037;-87
2022/01/26 04:32:43;;;;;;;125.93;52.05;;;;;;;1.29;83.60;103051.41;5051780;28;20376;-87
2022/01/26 04:35:10;;;;;;;123.25;51.78;;;;;;;1.56;83.83;103094.22;5035124;28;20439;-87
2022/01/26 04:40:22;;;;;;;124.05;51.67;;;;;;;1.55;84.21;103094.31;5052124;28;20052;-87
2022/01/26 04:42:58;;;;;;;126.03;52.30;;;;;;;1.12;83.95;103035.59;5051425;28;20468;-87
2022/01/26 04:45:26;;;;;;;128.57;52.08;;;;;;;1.07;84.20;103033.22;5051741;28;20457;-87
2022/01/26 04:47:51;;;;;;;124.20;51.55;;;;;;;1.10;84.39;103048.22;5052440;28;20033;-87
2022/01/26 04:50:17;;;;;;;129.60;52.80;;;;;;;1.11;84.61;103050.78;5034590;28;20409;-87
2022/01/26 04:52:45;;;;;;;126.18;50.67;;;;;;;1.52;84.67;103130.19;5051161;28;20056;-87
2022/01/26 04:55:11;;;;;;;124.70;51.88;;;;;;;1.49;85.03;103130.38;5035129;28;20033;-87
2022/01/26 04:57:37;;;;;;;125.75;52.20;;;;;;;1.46;84.81;103114.53;5052423;28;20090;-87
2022/01/26 05:00:07;;;;;;;126.13;52.05;;;;;;;1.28;84.96;103081.78;5052534;28;20404;-87
2022/01/26 05:02:33;;;;;;;126.00;52.30;;;;;;;1.16;85.04;103080.75;5052472;28;20060;-87
2022/01/26 05:04:59;;;;;;;128.25;52.38;;;;;;;1.25;85.21;103090.00;5050985;28;20028;-87
2022/01/26 05:07:24;;;;;;;124.63;52.90;;;;;;;1.15;84.93;103059.47;5052480;28;20029;-87
2022/01/26 05:09:50;;;;;;;118.78;50.30;;;;;;;1.02;85.12;103038.88;5052583;28;20393;-87
2022/01/26 05:12:16;;;;;;;118.13;50.90;;;;;;;1.01;85.22;103034.47;5051078;28;20044;-87
2022/01/26 05:14:44;;;;;;;119.45;50.63;;;;;;;1.46;85.02;103113.66;5052011;28;20036;-87
2022/01/26 05:17:11;;;;;;;130.63;52.53;;;;;;;1.25;85.47;103086.47;5051271;28;20065;-86
2022/01/26 05:19:37;;;;;;;124.55;53.90;;;;;;;1.45;85.61;103106.56;5049996;28;20636;-87
2022/01/26 05:22:03;;;;;;;125.00;51.97;;;;;;;1.48;85.51;103091.19;5017984;28;20047;-87
2022/01/26 05:24:28;;;;;;;126.57;50.45;;;;;;;1.49;85.04;103086.69;5050831;28;20039;-87
2022/01/26 05:26:53;;;;;;;122.95;51.35;;;;;;;1.42;85.43;103075.56;5050969;28;20126;-87
2022/01/26 05:29:19;;;;;;;123.53;51.95;;;;;;;1.16;85.44;103029.94;5034366;28;20087;-87
2022/01/26 05:31:44;;;;;;;122.22;51.95;;;;;;;1.44;84.97;103059.41;5033979;28;20458;-87
2022/01/26 05:34:10;;;;;;;125.50;50.40;;;;;;;1.42;85.60;103067.53;5050791;28;20116;-87
2022/01/26 05:36:35;;;;;;;116.50;51.38;;;;;;;0.98;85.82;102993.72;5050673;28;20444;-87
2022/01/26 05:39:05;;;;;;;124.93;51.28;;;;;;;0.99;85.82;102996.31;5034230;28;20399;-87
2022/01/26 05:41:30;;;;;;;119.88;50.03;;;;;;;1.02;85.93;103020.16;5051798;28;20033;-87
2022/01/26 05:44:00;;;;;;;128.98;53.35;;;;;;;1.00;85.78;103014.03;5051927;28;20040;-86
2022/01/26 05:46:34;;;;;;;120.80;49.80;;;;;;;0.98;85.98;102997.25;5050756;28;20489;-87
2022/01/26 05:48:59;;;;;;;127.20;51.80;;;;;;;0.97;86.45;102994.69;5050354;28;20074;-87
2022/01/26 05:51:26;;;;;;;128.73;51.65;;;;;;;1.15;85.91;103019.34;5051099;28;20029;-87
2022/01/26 05:53:54;;;;;;;127.05;50.92;;;;;;;1.44;85.86;103064.75;5037933;28;20059;-86
2022/01/26 05:56:19;;;;;;;124.00;51.45;;;;;;;1.28;86.30;103046.16;5055114;28;20048;-86
2022/01/26 05:58:45;;;;;;;126.68;53.47;;;;;;;0.95;86.35;102989.44;5055188;28;20037;-86
2022/01/26 06:01:14;;;;;;;126.65;51.83;;;;;;;0.97;86.82;103006.22;5054746;28;20539;-87
2022/01/26 06:03:39;;;;;;;131.80;53.47;;;;;;;1.20;87.00;103020.78;5055894;28;20025;-87
2022/01/26 06:06:05;;;;;;;129.82;53.42;;;;;;;1.09;87.12;102996.53;5054362;28;20603;-87
2022/01/26 06:08:31;;;;;;;129.40;53.15;;;;;;;1.57;86.71;103046.91;5056062;28;20523;-87
2022/01/26 06:10:58;;;;;;;123.72;51.97;;;;;;;1.60;86.37;103049.38;5054558;28;20497;-87
2022/01/26 06:13:24;;;;;;;121.72;49.72;;;;;;;1.55;86.20;103035.44;5055039;28;20036;-88
2022/01/26 06:15:50;;;;;;;127.50;53.63;;;;;;;1.32;86.06;103003.06;5054650;28;20393;-88
2022/01/26 06:18:18;;;;;;;128.35;53.60;;;;;;;1.57;86.04;103036.22;5053923;28;20029;-88
2022/01/26 06:20:44;;;;;;;128.27;52.95;;;;;;;1.47;86.21;103022.59;5054404;28;20086;-85
2022/01/26 06:23:10;;;;;;;123.57;51.15;;;;;;;1.55;86.06;103038.13;5055466;28;20533;-88
2022/01/26 06:25:39;;;;;;;134.23;54.63;;;;;;;1.33;86.33;103022.63;5053329;28;20127;-87
2022/01/26 06:28:13;;;;;;;124.88;54.50;;;;;;;1.53;86.74;103058.78;5053978;28;20025;-86
2022/01/26 06:30:44;;;;;;;124.80;51.72;;;;;;;1.22;86.88;103002.78;5037815;28;20033;-88
2022/01/26 06:33:10;;;;;;;123.15;52.05;;;;;;;1.43;86.95;103039.78;5055262;28;20036;-88
2022/01/26 06:35:35;;;;;;;131.55;53.08;;;;;;;1.54;87.18;103061.34;5054053;28;20033;-88
2022/01/26 06:38:02;;;;;;;129.98;53.42;;;;;;;1.03;87.58;102979.13;5053836;28;20033;-88
2022/01/26 06:40:27;;;;;;;129.07;53.97;;;;;;;1.05;87.86;102992.38;5055746;28;20099;-92
2022/01/26 06:43:00;;;;;;;130.13;53.63;;;;;;;1.05;87.73;102987.03;5048266;28;20028;-91
2022/01/26 06:45:30;;;;;;;130.30;54.15;;;;;;;1.39;88.42;103057.88;5055175;28;20602;-85
2022/01/26 06:48:15;;;;;;;130.10;54.38;;;;;;;1.46;88.02;103065.50;5054970;28;20214;-88
2022/01/26 06:50:43;;;;;;;135.52;55.22;;;;;;;1.48;88.55;103074.28;5041589;28;20029;-88
2022/01/26 06:53:09;;;;;;;128.25;54.00;;;;;;;1.32;88.42;103039.66;5055261;28;20021;-88
2022/01/26 06:55:39;;;;;;;131.25;53.22;;;;;;;1.36;88.37;103050.06;5039034;28;20037;-88
2022/01/26 06:58:05;;;;;;;135.95;55.13;;;;;;;1.03;88.34;103011.19;5056602;28;20017;-88
2022/01/26 07:00:33;;;;;;;141.25;55.13;;;;;;;1.07;88.99;103005.66;5038018;28;20025;-88
2022/01/26 07:02:59;;;;;;;137.82;55.60;;;;;;;1.01;89.29;102982.84;5053534;28;20491;-88
2022/01/26 07:05:25;;;;;;;131.35;55.65;;;;;;;1.38;89.14;103044.59;5052211;28;20071;-88
2022/01/26 07:07:51;;;;;;;138.52;56.90;;;;;;;1.45;89.92;103069.13;5036873;28;20029;-87
2022/01/26 07:10:16;;;;;;;139.57;55.35;;;;;;;1.16;89.50;103016.56;5053110;28;20033;-87
2022/01/26 07:12:44;;;;;;;136.68;56.90;;;;;;;1.26;89.72;103026.69;5053331;28;20495;-88
2022/01/26 07:23:04;;;;;;;141.52;56.45;;;;;;;1.46;90.44;103074.41;5059301;28;20040;-89
2022/01/26 07:25:30;;;;;;;146.77;58.53;;;;;;;1.33;90.41;103068.09;5054974;28;20052;-87
2022/01/26 07:27:59;;;;;;;146.38;62.17;;;;;;;1.29;90.88;103085.34;5052741;28;20017;-88
2022/01/26 07:30:25;;;;;;;142.57;57.45;;;;;;;1.46;91.22;103113.66;5052463;28;20144;-86
2022/01/26 07:32:51;;;;;;;148.32;59.45;;;;;;;1.11;91.55;103025.84;5036264;28;20036;-87
2022/01/26 07:35:16;;;;;;;152.43;56.33;;;;;;;1.46;91.31;103090.44;5037873;28;20047;-87
2022/01/26 07:37:44;;;;;;;145.38;58.13;;;;;;;1.26;91.96;103061.47;5038657;28;20079;-86
2022/01/26 07:40:16;;;;;;;146.18;57.28;;;;;;;1.20;92.01;103050.19;5053613;28;20025;-87
2022/01/26 07:42:41;;;;;;;145.63;58.95;;;;;;;1.53;91.85;103098.91;5054034;28;20465;-88
2022/01/26 07:45:10;;;;;;;148.27;54.08;;;;;;;1.16;92.30;103037.97;5037482;28;20048;-87
2022/01/26 07:47:37;;;;;;;149.18;56.75;;;;;;;0.98;92.65;103010.63;5054160;28;20033;-89
2022/01/26 07:50:08;;;;;;;147.45;54.92;;;;;;;0.97;93.12;103018.75;5054270;28;20029;-88
2022/01/26 07:52:40;;;;;;;161.68;60.35;;;;;;;1.12;93.67;103046.28;5053819;28;20029;-89
2022/01/26 07:55:15;;;;;;;156.23;57.25;;;;;;;0.93;93.78;103010.06;5038665;28;20429;-89
2022/01/26 07:57:40;;;;;;;154.50;58.90;;;;;;;1.25;93.86;103054.38;5054369;28;20393;-88
2022/01/26 08:00:07;;;;;;;152.60;56.22;;;;;;;1.42;94.27;103091.59;5052926;28;20068;-87
2022/01/26 08:02:32;;;;;;;150.07;57.38;;;;;;;1.28;94.06;103071.09;5053309;28;20028;-87
2022/01/26 08:04:58;;;;;;;149.15;57.53;;;;;;;1.45;94.64;103119.94;5036613;28;20465;-88
2022/01/26 08:07:24;;;;;;;152.02;56.80;;;;;;;1.38;94.55;103122.19;5053148;28;20052;-87
2022/01/26 08:09:49;;;;;;;156.82;57.40;;;;;;;1.38;95.04;103122.19;5036077;28;20482;-86
2022/01/26 08:12:15;;;;;;;152.52;56.45;;;;;;;1.30;95.31;103098.59;5051859;28;20389;-86
2022/01/26 08:14:45;;;;;;;144.82;54.67;;;;;;;1.43;95.33;103105.81;5051533;28;20115;-86
2022/01/26 08:17:14;;;;;;;157.85;56.90;;;;;;;1.29;95.89;103088.00;5035159;28;20025;-86
2022/01/26 08:19:39;;;;;;;145.88;53.75;;;;;;;1.42;95.75;103118.34;5051875;28;20396;-88
2022/01/26 08:22:08;;;;;;;146.18;55.53;;;;;;;1.23;95.69;103084.75;5053146;28;20032;-88
2022/01/26 08:24:37;;;;;;;155.68;56.70;;;;;;;1.08;96.08;103068.84;5051839;28;20045;-86
2022/01/26 08:27:10;;;;;;;150.55;56.08;;;;;;;1.04;96.45;103057.50;5034852;28;20065;-85
2022/01/26 08:29:41;;;;;;;148.95;56.28;;;;;;;1.22;96.37;103077.69;5051854;28;20028;-86
2022/01/26 08:32:07;;;;;;;148.20;55.00;;;;;;;1.12;96.45;103054.31;5052147;28;20036;-86
2022/01/26 08:34:32;;;;;;;153.20;56.47;;;;;;;1.50;96.70;103110.66;5034765;28;20071;-86
2022/01/26 08:36:58;;;;;;;148.68;55.25;;;;;;;1.24;96.99;103069.59;5051435;28;20057;-86
2022/01/26 08:39:23;;;;;;;155.60;56.15;;;;;;;1.08;97.52;103053.66;5051584;28;20083;-86
2022/01/26 08:41:49;;;;;;;156.88;56.75;;;;;;;1.17;97.53;103070.94;5051739;28;20124;-86
2022/01/26 08:44:15;;;;;;;152.73;55.53;;;;;;;1.28;97.86;103094.31;5050851;28;20426;-86
2022/01/26 08:46:41;;;;;;;145.93;53.45;;;;;;;1.03;97.64;103050.41;5052565;28;20032;-86
2022/01/26 08:49:07;;;;;;;151.15;54.00;;;;;;;1.14;98.00;103081.84;5034313;28;20404;-86
2022/01/26 08:51:33;;;;;;;151.60;56.80;;;;;;;1.31;98.56;103104.81;5050992;28;20040;-86
2022/01/26 08:53:59;;;;;;;152.55;55.72;;;;;;;1.23;98.21;103081.22;5051029;28;20029;-86
2022/01/26 08:56:26;;;;;;;142.25;54.22;;;;;;;1.46;98.18;103132.38;5051256;28;20041;-86
2022/01/26 08:58:52;;;;;;;138.52;51.03;;;;;;;1.51;97.87;103133.81;5050979;28;20035;-89
2022/01/26 09:01:18;;;;;;;137.02;52.03;;;;;;;1.18;98.01;103069.97;5034256;28;20025;-91
2022/01/26 09:03:43;;;;;;;135.57;53.08;;;;;;;1.30;97.63;103076.34;5052084;28;20493;-87
2022/01/26 09:06:10;;;;;;;135.70;52.08;;;;;;;1.48;97.28;103103.72;5052558;28;20079;-91
2022/01/26 09:08:41;;;;;;;139.32;53.78;;;;;;;1.63;97.46;103109.88;5051418;28;20390;-89
2022/01/26 09:11:23;;;;;;;136.73;52.17;;;;;;;1.29;97.12;103047.88;5051207;28;20025;-91
2022/01/26 09:13:56;;;;;;;;;;;;;;;1.77;96.28;103120.50;5052179;28;20029;-90
2022/01/26 09:16:24;;;;;;;126.50;50.80;;;;;;;1.37;96.51;103057.13;5051904;28;20403;-90
2022/01/26 09:18:56;;;;;;;120.88;49.22;;;;;;;1.65;95.94;103099.94;5035107;28;20079;-90
2022/01/26 09:21:24;;;;;;;130.30;51.38;;;;;;;1.40;96.54;103061.41;5052037;28;20031;-90
2022/01/26 09:23:49;;;;;;;126.15;49.78;;;;;;;1.43;96.66;103063.88;5051828;28;20033;-91
2022/01/26 09:26:16;;;;;;;122.53;50.70;;;;;;;1.69;96.02;103106.81;5051268;28;20087;-90
2022/01/26 09:28:45;;;;;;;126.00;49.97;;;;;;;1.66;96.41;103107.00;5054866;28;20041;-91
2022/01/26 09:31:11;;;;;;;125.80;50.25;;;;;;;1.67;96.39;103108.69;5039087;28;20069;-91
2022/01/26 09:33:36;;;;;;;124.95;49.72;;;;;;;1.86;96.38;103143.13;5055879;28;20073;-90
2022/01/26 09:36:07;;;;;;;122.53;50.83;;;;;;;1.48;95.96;103076.97;5038284;28;20037;-90
2022/01/26 09:38:33;;;;;;;120.20;49.67;;;;;;;1.68;96.48;103107.75;5055257;28;20454;-91
2022/01/26 09:40:58;;;;;;;124.15;50.70;;;;;;;1.98;95.97;103128.97;5056641;28;20065;-91
2022/01/26 09:43:40;;;;;;;117.22;48.65;;;;;;;1.61;95.81;103063.63;5038489;28;20527;-90
2022/01/26 09:46:05;;;;;;;111.57;48.75;;;;;;;1.50;95.61;103032.22;5055165;28;20044;-91
2022/01/26 09:48:33;;;;;;;112.13;48.53;;;;;;;1.64;95.19;103044.69;5038385;28;20119;-91
2022/01/26 09:51:06;;;;;;;107.43;47.38;;;;;;;1.93;94.71;103090.91;5054746;28;20029;-90
2022/01/26 09:53:33;;;;;;;;;;;;;;;2.14;94.61;103106.47;5038430;28;20044;-90
2022/01/26 09:55:58;;;;;;;104.93;45.40;;;;;;;1.73;94.06;103038.72;5038834;28;20368;-90
2022/01/26 09:58:25;;;;;;;105.50;47.67;;;;;;;2.03;94.34;103083.13;5038263;28;20025;-89
2022/01/26 10:01:02;;;;;;;106.75;46.45;;;;;;;2.16;94.71;103102.75;5053633;28;20106;-89
2022/01/26 10:03:32;;;;;;;106.97;45.83;;;;;;;2.19;94.02;103102.53;5054596;28;20385;-89
2022/01/26 10:05:59;;;;;;;106.10;45.85;;;;;;;2.23;94.32;103111.19;5054438;28;20055;-89
2022/01/26 10:17:25;;;;;;;96.82;44.00;;;;;;;2.00;92.72;103049.38;5054416;28;20044;-88
2022/01/26 10:19:58;;;;;;;97.22;44.38;;;;;;;2.33;92.99;103114.97;5055581;28;20032;-89
2022/01/26 10:22:34;;;;;;;89.45;41.10;;;;;;;2.15;92.89;103087.63;5054184;28;20057;-89
2022/01/26 10:25:04;;;;;;;95.60;44.75;;;;;;;2.30;93.36;103099.09;5053906;28;20031;-88
2022/01/26 10:27:59;;;;;;;87.75;42.97;;;;;;;2.39;92.64;103092.25;5053218;28;20053;-89
2022/01/26 10:30:25;;;;;;;84.38;42.28;;;;;;;2.34;92.84;103097.94;5036874;28;20560;-89
2022/01/26 10:32:51;;;;;;;90.25;44.60;;;;;;;2.28;92.41;103071.56;5053885;28;20060;-89
2022/01/26 10:35:30;;;;;;;91.25;44.45;;;;;;;1.92;93.36;103019.59;5037047;28;20045;-89
2022/01/26 10:37:59;;;;;;;96.78;45.13;;;;;;;2.04;93.50;103053.56;5053882;28;20049;-89
2022/01/26 10:40:27;;;;;;;88.72;43.42;;;;;;;1.92;93.44;103041.88;5037079;28;20037;-90
2022/01/26 10:43:12;;;;;;;94.95;43.13;;;;;;;2.25;93.33;103095.91;5053853;28;20028;-89
2022/01/26 10:46:03;;;;;;;96.90;44.92;;;;;;;2.17;93.56;103107.16;5053547;28;20040;-89
2022/01/26 10:48:54;;;;;;;93.82;44.28;;;;;;;2.25;93.42;103130.72;5053845;28;20028;-89
2022/01/26 10:51:36;;;;;;;86.80;42.03;;;;;;;2.46;93.67;103160.53;5054511;28;20037;-89
2022/01/26 10:54:19;;;;;;;87.72;43.00;;;;;;;2.16;93.14;103093.88;5056509;28;20040;-89
2022/01/26 10:56:48;;;;;;;95.93;45.05;;;;;;;2.39;93.69;103140.50;5054981;28;20024;-89
2022/01/26 10:59:14;;;;;;;96.10;45.20;;;;;;;2.13;94.23;103092.25;5054316;28;20481;-89
2022/01/26 11:01:40;;;;;;;92.22;44.10;;;;;;;2.30;94.01;103122.38;5055573;28;20070;-89
2022/01/26 11:04:07;;;;;;;93.47;44.25;;;;;;;1.96;94.33;103076.47;5036464;28;20067;-89
2022/01/26 11:06:35;;;;;;;91.28;43.53;;;;;;;2.20;94.19;103103.38;5053485;28;20033;-88
2022/01/26 11:09:12;;;;;;;92.22;43.20;;;;;;;1.97;94.46;103064.81;5053671;28;20064;-88
2022/01/26 11:11:41;;;;;;;95.97;44.05;;;;;;;2.20;94.03;103104.25;5053516;28;20389;-88
2022/01/26 11:14:25;;;;;;;;;;;;;;;;;;;;;
2022/01/26 11:16:54;;;;;;;89.93;42.75;;;;;;;2.18;94.22;103084.75;5054368;28;20043;-88
2022/01/26 11:19:20;;;;;;;97.03;43.53;;;;;;;2.00;93.91;103053.88;5052970;28;20075;-88
2022/01/26 11:21:47;;;;;;;100.38;44.90;;;;;;;2.12;94.32;103073.59;5052284;28;20033;-89
2022/01/26 11:24:23;;;;;;;94.07;43.92;;;;;;;2.37;94.74;103102.25;5052993;28;20064;-88
2022/01/26 11:27:11;;;;;;;91.75;44.00;;;;;;;2.31;94.46;103079.41;5052580;28;20067;-89
2022/01/26 11:29:47;;;;;;;95.40;44.17;;;;;;;2.51;94.29;103106.63;5052752;28;20041;-89
2022/01/26 11:32:35;;;;;;;89.47;43.63;;;;;;;2.15;94.51;103043.94;5052717;28;20071;-89
2022/01/26 11:35:09;;;;;;;92.50;44.22;;;;;;;2.19;93.93;103034.72;5048994;28;20425;-88
2022/01/26 11:37:46;;;;;;;96.75;44.00;;;;;;;2.34;93.68;103048.88;5035520;28;20029;-88
2022/01/26 11:46:09;;;;;;;89.80;43.38;;;;;;;2.34;93.55;103012.22;5052836;28;20048;-89
2022/01/26 11:48:39;;;;;;;95.90;44.55;;;;;;;2.29;92.87;103006.34;5051883;28;20029;-88
2022/01/26 11:51:06;;;;;;;89.72;43.75;;;;;;;2.42;93.52;103031.28;5051629;28;20472;-89
2022/01/26 11:53:33;;;;;;;86.88;43.25;;;;;;;2.55;93.58;103044.66;5052153;28;20037;-88
2022/01/26 11:56:10;;;;;;;92.18;44.80;;;;;;;2.35;93.21;103005.91;5051869;28;20485;-89
2022/01/26 11:58:42;;;;;;;88.80;42.50;;;;;;;2.37;92.92;103013.81;5051581;28;20390;-89
2022/01/26 12:01:30;;;;;;;;;;;;;;;2.80;93.14;103086.69;5052609;28;20036;-89
2022/01/26 12:03:57;;;;;;;90.72;42.13;;;;;;;2.63;92.86;103054.88;5052267;28;20289;-88
2022/01/26 12:06:31;;;;;;;94.30;45.65;;;;;;;2.30;93.21;102997.31;5051430;28;20061;-88
2022/01/26 12:09:02;;;;;;;92.60;42.90;;;;;;;2.33;92.78;103007.81;5051708;28;20106;-88
2022/01/26 12:11:29;;;;;;;96.22;43.15;;;;;;;2.47;92.84;103025.59;5052088;28;20029;-88
2022/01/26 12:14:03;;;;;;;89.32;41.80;;;;;;;2.39;92.68;102990.44;5051910;28;20040;-89
2022/01/26 12:16:40;;;;;;;95.10;44.33;;;;;;;2.54;92.80;103024.22;5051906;28;20067;-89
2022/01/26 12:38:14;;;;;;;86.32;41.85;;;;;;;2.69;92.39;103034.78;5052831;28;20111;-89
2022/01/26 12:43:37;;;;;;;92.10;43.17;;;;;;;2.67;91.88;103017.97;5052942;28;20102;-88
2022/01/26 12:46:06;;;;;;;84.22;43.13;;;;;;;2.76;91.53;103031.56;5051350;28;20036;-88
2022/01/26 12:48:34;;;;;;;84.97;41.58;;;;;;;2.89;91.16;103050.28;5050974;28;20111;-88
2022/01/26 12:51:06;;;;;;;81.57;41.67;;;;;;;3.05;91.40;103067.97;5051124;28;20039;-88
2022/01/26 12:53:36;;;;;;;82.18;43.15;;;;;;;2.81;91.04;103020.50;5051175;28;20500;-88
2022/01/26 12:56:08;;;;;;;84.85;41.60;;;;;;;3.11;90.90;103067.53;5050742;28;20513;-87
2022/01/26 12:58:41;;;;;;;88.82;43.00;;;;;;;2.81;90.77;103033.91;5051798;28;20025;-88
2022/01/26 13:01:08;;;;;;;77.45;39.90;;;;;;;3.07;90.46;103068.69;5050420;28;20456;-88
2022/01/26 13:03:36;;;;;;;80.93;40.63;;;;;;;2.86;90.91;103034.44;5050420;28;20112;-88
2022/01/26 13:06:13;;;;;;;83.05;42.90;;;;;;;2.89;90.97;103023.47;5050972;28;20049;-88
2022/01/26 13:08:48;;;;;;;79.43;40.33;;;;;;;2.91;90.20;103018.00;5050610;28;20025;-87
2022/01/26 13:11:22;;;;;;;83.03;40.85;;;;;;;2.73;90.78;102993.38;5050697;28;20401;-88
2022/01/26 13:14:11;;;;;;;86.88;41.92;;;;;;;2.74;90.95;102987.06;5050809;28;20117;-88
2022/01/26 13:16:39;;;;;;;79.25;40.13;;;;;;;2.99;90.40;103002.22;5050569;28;20135;-88
2022/01/26 13:51:59;;;;;;;89.55;46.70;;;;;;;2.86;89.55;102959.34;5051436;28;20055;-88
2022/01/26 13:59:33;;;;;;;86.85;45.92;;;;;;;3.05;90.05;102998.22;5051033;28;20102;-88
2022/01/26 14:01:59;;;;;;;83.75;45.53;;;;;;;2.93;89.75;102957.94;5035637;28;20029;-88
2022/01/26 14:04:26;;;;;;;87.10;44.17;;;;;;;3.19;89.63;103010.63;5033767;28;20044;-88